Time;durP1;ratioP1;P1;durP2;ratioP2;P2;SDS_P1;SDS_P2;PMS_P1;PMS_P2;Temp;Humidity;BMP_temperature;BMP_pressure;BME280_temperature;BME280_humidity;BME280_pressure;Samples;Min_cycle;Max_cycle;Signal;HPM_P1;HPM_P2
2022/07/23 00:02:08;;;;;;;355.00;189.70;;;;;;;;;;5006151;28;20566;-75
2022/07/23 00:04:34;;;;;;;353.08;187.63;;;;;;;;;;5008730;28;20623;-74
2022/07/23 00:07:00;;;;;;;389.13;207.13;;;;;;;;;;5004994;28;20220;-74
2022/07/23 00:09:28;;;;;;;352.88;186.10;;;;;;;;;;5008051;28;20221;-75
2022/07/23 00:11:54;;;;;;;381.27;199.68;;;;;;;;;;5018985;28;20225;-74
2022/07/23 00:14:20;;;;;;;359.27;189.25;;;;;;;;;;5008169;28;20227;-75
2022/07/23 00:16:46;;;;;;;341.85;179.98;;;;;;;;;;5008617;28;20696;-74
2022/07/23 00:19:12;;;;;;;332.02;175.55;;;;;;;;;;5010110;28;20205;-74
2022/07/23 00:21:38;;;;;;;353.05;185.73;;;;;;;;;;5010256;28;20228;-73
2022/07/23 00:24:04;;;;;;;319.13;171.30;;;;;;;;;;5012082;28;21029;-74
2022/07/23 00:26:30;;;;;;;341.40;178.65;;;;;;;;;;5013779;28;20235;-73
2022/07/23 00:28:55;;;;;;;361.02;190.63;;;;;;;;;;5012318;28;20177;-76
2022/07/23 00:31:21;;;;;;;352.67;181.95;;;;;;;;;;5010413;28;20769;-74
2022/07/23 00:33:47;;;;;;;363.65;200.77;;;;;;;;;;5009483;28;20217;-73
2022/07/23 00:36:13;;;;;;;347.17;182.98;;;;;;;;;;5010389;28;20267;-74
2022/07/23 00:38:39;;;;;;;335.10;180.10;;;;;;;;;;5009331;28;20217;-74
2022/07/23 00:41:05;;;;;;;356.02;188.32;;;;;;;;;;5010544;28;20201;-74
2022/07/23 00:43:31;;;;;;;339.35;181.18;;;;;;;;;;5014042;28;20172;-74
2022/07/23 00:45:57;;;;;;;412.35;216.20;;;;;;;;;;5007026;28;20331;-74
2022/07/23 00:48:23;;;;;;;388.83;200.77;;;;;;;;;;5005894;28;20231;-76
2022/07/23 00:50:49;;;;;;;409.42;219.57;;;;;;;;;;5003236;28;20236;-73
2022/07/23 00:53:15;;;;;;;377.85;195.27;;;;;;;;;;5007928;28;20558;-75
2022/07/23 00:55:41;;;;;;;408.90;221.45;;;;;;;;;;5002665;28;20182;-76
2022/07/23 00:58:09;;;;;;;354.77;190.10;;;;;;;;;;5006303;28;20228;-73
2022/07/23 01:00:35;;;;;;;362.63;192.93;;;;;;;;;;5003280;28;20622;-75
2022/07/23 01:03:01;;;;;;;388.80;202.75;;;;;;;;;;5004971;28;20216;-74
2022/07/23 01:05:27;;;;;;;378.90;205.35;;;;;;;;;;5007224;28;20224;-74
2022/07/23 01:07:53;;;;;;;393.38;209.55;;;;;;;;;;5003227;28;20192;-74
2022/07/23 01:10:31;;;;;;;434.65;227.98;;;;;;;;;;4998680;28;20243;-75
2022/07/23 01:12:57;;;;;;;369.95;197.07;;;;;;;;;;5003984;28;20216;-74
2022/07/23 01:15:23;;;;;;;384.80;202.37;;;;;;;;;;5002888;28;20224;-74
2022/07/23 01:17:49;;;;;;;369.23;194.27;;;;;;;;;;5021528;28;20225;-74
2022/07/23 01:20:15;;;;;;;365.35;187.73;;;;;;;;;;5004703;28;20247;-72
2022/07/23 01:22:41;;;;;;;345.65;180.38;;;;;;;;;;5005977;28;20189;-72
2022/07/23 01:25:07;;;;;;;334.13;177.60;;;;;;;;;;5003360;28;20228;-71
2022/07/23 01:27:33;;;;;;;339.50;182.05;;;;;;;;;;5009137;28;20220;-72
2022/07/23 01:30:00;;;;;;;394.92;205.20;;;;;;;;;;5003238;28;20244;-72
2022/07/23 01:32:26;;;;;;;388.02;198.68;;;;;;;;;;5006089;28;20216;-73
2022/07/23 01:34:52;;;;;;;380.48;202.02;;;;;;;;;;5006963;28;20211;-72
2022/07/23 01:37:18;;;;;;;348.75;184.30;;;;;;;;;;5006753;28;20626;-71
2022/07/23 01:39:44;;;;;;;349.42;184.45;;;;;;;;;;5003477;28;20224;-71
2022/07/23 01:42:10;;;;;;;395.55;208.30;;;;;;;;;;5003228;28;20225;-72
2022/07/23 01:44:36;;;;;;;401.43;210.37;;;;;;;;;;5005265;28;20221;-72
2022/07/23 01:47:01;;;;;;;388.08;204.90;;;;;;;;;;5018344;28;20192;-71
2022/07/23 01:49:27;;;;;;;398.33;210.10;;;;;;;;;;5004430;28;20181;-71
2022/07/23 01:51:59;;;;;;;359.70;190.30;;;;;;;;;;5004655;28;20562;-72
2022/07/23 01:54:26;;;;;;;434.00;225.48;;;;;;;;;;5002722;28;20225;-72
2022/07/23 01:56:52;;;;;;;409.10;207.55;;;;;;;;;;5002811;28;20217;-72
2022/07/23 01:59:18;;;;;;;355.67;180.10;;;;;;;;;;5006992;28;20224;-72
2022/07/23 02:01:44;;;;;;;351.27;181.50;;;;;;;;;;4999887;28;20263;-71
2022/07/23 02:04:10;;;;;;;381.30;192.23;;;;;;;;;;5005295;28;20284;-72
2022/07/23 02:06:35;;;;;;;335.10;173.63;;;;;;;;;;5003019;28;20220;-71
2022/07/23 02:09:01;;;;;;;383.77;198.53;;;;;;;;;;5010654;28;20225;-72
2022/07/23 02:11:27;;;;;;;334.38;171.75;;;;;;;;;;5005699;28;20229;-72
2022/07/23 02:13:53;;;;;;;353.23;184.77;;;;;;;;;;5004594;28;20807;-72
2022/07/23 02:16:19;;;;;;;393.57;198.63;;;;;;;;;;5005711;28;20181;-72
2022/07/23 02:18:46;;;;;;;328.30;169.20;;;;;;;;;;5009092;28;20221;-71
2022/07/23 02:21:12;;;;;;;358.83;186.73;;;;;;;;;;5002051;28;20233;-72
2022/07/23 02:23:38;;;;;;;328.88;171.23;;;;;;;;;;5004965;28;20221;-72
2022/07/23 02:26:04;;;;;;;347.15;186.98;;;;;;;;;;5007813;28;20204;-71
2022/07/23 02:28:30;;;;;;;322.55;171.52;;;;;;;;;;5010101;28;20790;-72
2022/07/23 02:30:56;;;;;;;372.40;197.82;;;;;;;;;;5009616;28;20235;-72
2022/07/23 02:33:22;;;;;;;341.90;178.17;;;;;;;;;;5005316;28;20251;-72
2022/07/23 02:35:48;;;;;;;400.27;203.85;;;;;;;;;;5006888;28;20217;-71
2022/07/23 02:38:14;;;;;;;346.50;177.57;;;;;;;;;;5007453;28;20225;-72
2022/07/23 02:40:40;;;;;;;366.87;187.67;;;;;;;;;;5006101;28;20197;-72
2022/07/23 02:43:05;;;;;;;364.73;184.43;;;;;;;;;;5000445;28;20283;-72
2022/07/23 02:45:31;;;;;;;399.17;203.75;;;;;;;;;;5007381;28;20722;-72
2022/07/23 02:47:57;;;;;;;349.33;178.15;;;;;;;;;;5009966;28;20292;-72
2022/07/23 02:50:23;;;;;;;358.37;181.83;;;;;;;;;;5008234;28;20306;-72
2022/07/23 02:52:49;;;;;;;352.83;181.63;;;;;;;;;;5001620;28;20182;-71
2022/07/23 02:55:15;;;;;;;369.63;183.60;;;;;;;;;;5006851;28;20540;-72
2022/07/23 02:57:41;;;;;;;359.57;184.43;;;;;;;;;;5003800;28;20224;-71
2022/07/23 03:00:07;;;;;;;355.20;178.10;;;;;;;;;;5010066;28;20617;-71
2022/07/23 03:02:33;;;;;;;335.38;169.73;;;;;;;;;;5006948;28;20671;-72
2022/07/23 03:04:59;;;;;;;363.93;184.87;;;;;;;;;;5006254;28;20189;-72
2022/07/23 03:07:25;;;;;;;341.17;169.15;;;;;;;;;;5002991;28;20188;-72
2022/07/23 03:09:51;;;;;;;375.00;188.77;;;;;;;;;;5002358;28;20216;-72
2022/07/23 03:12:17;;;;;;;358.73;180.27;;;;;;;;;;5002832;28;20222;-71
2022/07/23 03:14:43;;;;;;;358.35;180.35;;;;;;;;;;5007291;28;20225;-72
2022/07/23 03:17:09;;;;;;;358.33;179.00;;;;;;;;;;5009839;28;20228;-72
2022/07/23 03:19:37;;;;;;;359.97;186.33;;;;;;;;;;5009685;28;20527;-72
2022/07/23 03:22:03;;;;;;;358.15;179.73;;;;;;;;;;5010839;28;20729;-72
2022/07/23 03:27:14;;;;;;;401.87;198.27;;;;;;;;;;5005237;28;20227;-72
2022/07/23 03:29:39;;;;;;;324.60;163.07;;;;;;;;;;5023708;28;20216;-71
2022/07/23 03:32:05;;;;;;;327.50;165.80;;;;;;;;;;5008636;28;20208;-72
2022/07/23 03:34:31;;;;;;;347.17;171.90;;;;;;;;;;5011880;28;20182;-72
2022/07/23 03:36:57;;;;;;;350.25;177.55;;;;;;;;;;5008000;28;20223;-72
2022/07/23 03:39:23;;;;;;;409.43;201.20;;;;;;;;;;5008870;28;20567;-72
2022/07/23 03:41:49;;;;;;;368.48;183.32;;;;;;;;;;5006954;28;20225;-72
2022/07/23 03:44:15;;;;;;;366.60;180.10;;;;;;;;;;4999621;28;20225;-72
2022/07/23 03:46:41;;;;;;;328.45;162.95;;;;;;;;;;5005726;28;20666;-72
2022/07/23 03:49:07;;;;;;;362.57;180.77;;;;;;;;;;5009762;28;20232;-71
2022/07/23 03:51:33;;;;;;;345.20;172.90;;;;;;;;;;5008675;28;20225;-72
2022/07/23 03:53:59;;;;;;;399.02;204.40;;;;;;;;;;5006494;28;20225;-72
2022/07/23 03:56:25;;;;;;;418.17;205.30;;;;;;;;;;5007530;28;20652;-72
2022/07/23 03:58:51;;;;;;;354.07;182.17;;;;;;;;;;5011022;28;20212;-72
2022/07/23 04:01:17;;;;;;;376.17;187.77;;;;;;;;;;5002832;28;20251;-72
2022/07/23 04:03:43;;;;;;;352.92;179.18;;;;;;;;;;5007405;28;20221;-71
2022/07/23 04:06:09;;;;;;;368.50;195.93;;;;;;;;;;5005167;28;20669;-72
2022/07/23 04:08:35;;;;;;;348.75;179.45;;;;;;;;;;5009669;28;20220;-71
2022/07/23 04:11:01;;;;;;;385.73;204.82;;;;;;;;;;5007015;28;20201;-72
2022/07/23 04:13:27;;;;;;;350.40;182.52;;;;;;;;;;5009989;28;20275;-72
2022/07/23 04:15:53;;;;;;;357.75;190.20;;;;;;;;;;5002884;28;20225;-72
2022/07/23 04:18:21;;;;;;;347.42;182.00;;;;;;;;;;5003942;28;20216;-72
2022/07/23 04:20:47;;;;;;;358.63;190.75;;;;;;;;;;5011078;28;20225;-71
2022/07/23 04:23:13;;;;;;;379.10;196.80;;;;;;;;;;5006193;28;20241;-72
2022/07/23 04:25:39;;;;;;;412.20;216.68;;;;;;;;;;5008187;28;20215;-72
2022/07/23 04:28:05;;;;;;;327.88;168.98;;;;;;;;;;5009949;28;20225;-72
2022/07/23 04:30:31;;;;;;;343.23;178.88;;;;;;;;;;5005391;28;20224;-72
2022/07/23 04:32:57;;;;;;;380.02;198.43;;;;;;;;;;5006313;28;20232;-72
2022/07/23 04:35:23;;;;;;;382.42;198.57;;;;;;;;;;4998579;28;20224;-72
2022/07/23 04:37:49;;;;;;;380.42;203.70;;;;;;;;;;5005819;28;20669;-72
2022/07/23 04:40:16;;;;;;;355.88;183.30;;;;;;;;;;5000839;28;20209;-72
2022/07/23 04:42:42;;;;;;;355.38;187.70;;;;;;;;;;5008802;28;20312;-72
2022/07/23 04:45:08;;;;;;;379.60;196.05;;;;;;;;;;4999663;28;20221;-72
2022/07/23 04:47:34;;;;;;;355.75;188.52;;;;;;;;;;5003033;28;20965;-72
2022/07/23 04:50:00;;;;;;;360.23;195.60;;;;;;;;;;5004887;28;20185;-72
2022/07/23 04:52:26;;;;;;;381.25;204.00;;;;;;;;;;5005275;28;20209;-71
2022/07/23 04:54:52;;;;;;;380.15;205.20;;;;;;;;;;5003735;28;20220;-72
2022/07/23 04:57:18;;;;;;;440.85;227.25;;;;;;;;;;5003390;28;20217;-72
2022/07/23 04:59:43;;;;;;;350.35;190.65;;;;;;;;;;5004672;28;20220;-72
2022/07/23 05:02:09;;;;;;;347.55;187.00;;;;;;;;;;5000109;28;20228;-72
2022/07/23 05:04:35;;;;;;;340.48;181.70;;;;;;;;;;5003417;28;20177;-71
2022/07/23 05:07:01;;;;;;;360.60;191.65;;;;;;;;;;5005314;28;20217;-72
2022/07/23 05:09:27;;;;;;;425.52;225.52;;;;;;;;;;5001326;28;20228;-70
2022/07/23 05:11:53;;;;;;;375.75;200.57;;;;;;;;;;5007631;28;20278;-69
2022/07/23 05:14:19;;;;;;;400.90;216.15;;;;;;;;;;5005741;28;20225;-70
2022/07/23 05:16:45;;;;;;;346.27;192.25;;;;;;;;;;5007361;28;20208;-68
2022/07/23 05:19:11;;;;;;;345.33;193.10;;;;;;;;;;5005863;28;20223;-68
2022/07/23 05:21:37;;;;;;;380.83;203.65;;;;;;;;;;5002863;28;20220;-66
2022/07/23 05:24:03;;;;;;;397.23;215.93;;;;;;;;;;5003550;28;20678;-68
2022/07/23 05:26:29;;;;;;;392.95;212.77;;;;;;;;;;4995020;28;20232;-67
2022/07/23 05:28:55;;;;;;;430.02;225.32;;;;;;;;;;5003028;28;20627;-68
2022/07/23 05:31:21;;;;;;;411.75;221.25;;;;;;;;;;5002434;28;20215;-71
2022/07/23 05:33:46;;;;;;;367.80;200.30;;;;;;;;;;5019156;28;20221;-68
2022/07/23 05:36:12;;;;;;;385.75;209.27;;;;;;;;;;5001232;28;20547;-69
2022/07/23 05:38:38;;;;;;;354.77;190.35;;;;;;;;;;4995095;28;20275;-69
2022/07/23 05:41:04;;;;;;;410.25;222.02;;;;;;;;;;4996760;28;20662;-68
2022/07/23 05:43:30;;;;;;;369.83;202.05;;;;;;;;;;5000784;28;20197;-73
2022/07/23 05:45:56;;;;;;;364.02;196.77;;;;;;;;;;5004055;28;20225;-70
2022/07/23 05:48:22;;;;;;;376.08;202.90;;;;;;;;;;5003194;28;20221;-70
2022/07/23 05:50:48;;;;;;;398.05;216.88;;;;;;;;;;5003255;28;20228;-70
2022/07/23 05:53:14;;;;;;;377.33;198.60;;;;;;;;;;5000713;28;20244;-72
2022/07/23 05:55:40;;;;;;;422.98;223.25;;;;;;;;;;4999555;28;20188;-72
2022/07/23 05:58:06;;;;;;;367.38;192.90;;;;;;;;;;5002837;28;20225;-71
2022/07/23 06:00:32;;;;;;;349.25;191.07;;;;;;;;;;5000622;28;20228;-62
2022/07/23 06:02:58;;;;;;;415.77;227.20;;;;;;;;;;4996937;28;20602;-62
2022/07/23 06:05:25;;;;;;;417.73;223.40;;;;;;;;;;4999041;28;20224;-63
2022/07/23 06:07:51;;;;;;;437.38;237.32;;;;;;;;;;4998671;28;20192;-62
2022/07/23 06:10:17;;;;;;;357.23;197.55;;;;;;;;;;5002633;28;20173;-63
2022/07/23 06:12:43;;;;;;;342.60;194.33;;;;;;;;;;5004841;28;20231;-62
2022/07/23 06:15:10;;;;;;;358.25;189.93;;;;;;;;;;5005978;28;20300;-62
2022/07/23 06:17:38;;;;;;;340.05;190.07;;;;;;;;;;5001905;28;20213;-62
2022/07/23 06:20:04;;;;;;;348.92;195.25;;;;;;;;;;5001273;28;20244;-62
2022/07/23 06:22:30;;;;;;;371.98;206.18;;;;;;;;;;5002214;28;20208;-62
2022/07/23 06:24:56;;;;;;;361.05;203.38;;;;;;;;;;5005643;28;20229;-62
2022/07/23 06:27:22;;;;;;;420.17;232.00;;;;;;;;;;5000247;28;20225;-62
2022/07/23 06:29:48;;;;;;;401.63;225.18;;;;;;;;;;5002022;28;20225;-63
2022/07/23 06:32:14;;;;;;;351.20;200.02;;;;;;;;;;5007377;28;20236;-62
2022/07/23 06:34:40;;;;;;;357.05;196.90;;;;;;;;;;5005565;28;20201;-62
2022/07/23 06:37:06;;;;;;;360.73;202.90;;;;;;;;;;5004983;28;20687;-63
2022/07/23 06:39:32;;;;;;;422.20;231.50;;;;;;;;;;5005213;28;20706;-63
2022/07/23 06:41:58;;;;;;;413.88;231.65;;;;;;;;;;5004472;28;20304;-62
2022/07/23 06:44:24;;;;;;;378.92;202.35;;;;;;;;;;5000459;28;20312;-68
2022/07/23 06:46:50;;;;;;;350.48;194.65;;;;;;;;;;4997130;28;20327;-68
2022/07/23 06:49:16;;;;;;;394.27;206.45;;;;;;;;;;5006653;28;20192;-69
2022/07/23 06:51:42;;;;;;;334.40;183.00;;;;;;;;;;5005010;28;20228;-72
2022/07/23 06:54:08;;;;;;;615.03;311.17;;;;;;;;;;5002091;28;20239;-68
2022/07/23 06:56:33;;;;;;;417.15;222.80;;;;;;;;;;4992606;28;20224;-67
2022/07/23 06:58:59;;;;;;;593.38;311.48;;;;;;;;;;4994078;28;20187;-67
2022/07/23 07:01:25;;;;;;;391.70;199.35;;;;;;;;;;4997253;28;20676;-67
2022/07/23 07:03:51;;;;;;;373.45;189.85;;;;;;;;;;4998916;28;20224;-68
2022/07/23 07:06:17;;;;;;;378.87;196.13;;;;;;;;;;5001081;28;20220;-68
2022/07/23 07:08:43;;;;;;;402.58;211.68;;;;;;;;;;5001799;28;20231;-68
2022/07/23 07:11:09;;;;;;;377.52;199.57;;;;;;;;;;4998883;28;20571;-68
2022/07/23 07:13:36;;;;;;;497.73;250.10;;;;;;;;;;4999650;28;20427;-68
2022/07/23 07:16:02;;;;;;;397.47;204.87;;;;;;;;;;4997440;28;20735;-67
2022/07/23 07:18:28;;;;;;;383.25;189.70;;;;;;;;;;4999059;28;20247;-68
2022/07/23 07:20:54;;;;;;;383.37;199.50;;;;;;;;;;5003672;28;20226;-68
2022/07/23 07:23:20;;;;;;;402.93;202.50;;;;;;;;;;5003861;28;20224;-69
2022/07/23 07:25:46;;;;;;;391.00;206.33;;;;;;;;;;5004725;28;20578;-67
2022/07/23 07:28:12;;;;;;;366.50;188.63;;;;;;;;;;5004864;28;20534;-68
2022/07/23 07:30:38;;;;;;;418.90;205.17;;;;;;;;;;5000530;28;20221;-69
2022/07/23 07:33:04;;;;;;;372.20;186.93;;;;;;;;;;4995044;28;20229;-68
2022/07/23 07:35:32;;;;;;;386.13;200.63;;;;;;;;;;5007066;28;20229;-69
2022/07/23 07:37:58;;;;;;;354.40;180.70;;;;;;;;;;5006740;28;20189;-68
2022/07/23 07:40:24;;;;;;;387.33;198.27;;;;;;;;;;5007502;28;20181;-67
2022/07/23 07:42:50;;;;;;;373.27;187.67;;;;;;;;;;5013874;28;20232;-68
2022/07/23 07:45:17;;;;;;;399.98;198.93;;;;;;;;;;5003510;28;20225;-67
2022/07/23 07:47:43;;;;;;;339.47;168.57;;;;;;;;;;5010739;28;20232;-68
2022/07/23 07:50:09;;;;;;;361.80;177.77;;;;;;;;;;5012009;28;20297;-69
2022/07/23 07:52:38;;;;;;;332.83;162.47;;;;;;;;;;5010514;28;20197;-68
2022/07/23 07:55:05;;;;;;;366.87;178.73;;;;;;;;;;4998008;28;20220;-68
2022/07/23 07:57:31;;;;;;;371.57;184.13;;;;;;;;;;4999080;28;20251;-69
2022/07/23 07:59:58;;;;;;;367.97;184.73;;;;;;;;;;5007955;28;20614;-68
2022/07/23 08:02:23;;;;;;;375.60;182.10;;;;;;;;;;5012021;28;20576;-67
2022/07/23 08:04:49;;;;;;;366.67;184.00;;;;;;;;;;5008663;28;20177;-69
2022/07/23 08:07:16;;;;;;;396.50;197.33;;;;;;;;;;5002746;28;20174;-70
2022/07/23 08:09:42;;;;;;;378.50;194.33;;;;;;;;;;5005638;28;20299;-68
2022/07/23 08:12:08;;;;;;;387.60;201.97;;;;;;;;;;5000395;28;20744;-68
2022/07/23 08:14:34;;;;;;;353.77;182.20;;;;;;;;;;5002445;28;20225;-68
2022/07/23 08:17:00;;;;;;;385.40;202.27;;;;;;;;;;4999003;28;20235;-69
2022/07/23 08:19:26;;;;;;;373.10;195.03;;;;;;;;;;5007471;28;20196;-69
2022/07/23 08:21:52;;;;;;;397.83;207.73;;;;;;;;;;5001193;28;20224;-69
2022/07/23 08:24:17;;;;;;;412.55;216.25;;;;;;;;;;5010143;28;20234;-69
2022/07/23 08:26:43;;;;;;;354.10;185.63;;;;;;;;;;5002584;28;20221;-71
2022/07/23 08:29:09;;;;;;;378.93;198.33;;;;;;;;;;5004016;28;20224;-69
2022/07/23 08:31:35;;;;;;;376.42;204.52;;;;;;;;;;5005341;28;20296;-68
2022/07/23 08:34:02;;;;;;;389.58;214.88;;;;;;;;;;5004945;28;20216;-70
2022/07/23 08:36:28;;;;;;;422.92;222.40;;;;;;;;;;5004952;28;20243;-69
2022/07/23 08:38:55;;;;;;;431.05;235.13;;;;;;;;;;5003619;28;20221;-70
2022/07/23 08:41:21;;;;;;;425.17;226.45;;;;;;;;;;4997599;28;20224;-69
2022/07/23 08:43:47;;;;;;;405.20;213.77;;;;;;;;;;5002807;28;20181;-70
2022/07/23 08:46:13;;;;;;;377.90;201.27;;;;;;;;;;4997665;28;20189;-70
2022/07/23 08:48:39;;;;;;;379.90;200.82;;;;;;;;;;5002942;28;20229;-69
2022/07/23 08:51:06;;;;;;;367.52;203.30;;;;;;;;;;5005010;28;20239;-69
2022/07/23 08:53:33;;;;;;;371.02;198.55;;;;;;;;;;5002159;28;20220;-69
2022/07/23 08:56:01;;;;;;;397.45;219.75;;;;;;;;;;5000442;28;20196;-69
2022/07/23 08:58:27;;;;;;;382.33;207.95;;;;;;;;;;5007114;28;20643;-69
2022/07/23 09:00:53;;;;;;;396.40;212.32;;;;;;;;;;5001274;28;20232;-69
2022/07/23 09:03:20;;;;;;;381.77;209.02;;;;;;;;;;5004236;28;20339;-70
2022/07/23 09:05:46;;;;;;;416.48;232.80;;;;;;;;;;4999481;28;20225;-70
2022/07/23 09:08:12;;;;;;;375.65;206.98;;;;;;;;;;4998107;28;20221;-69
2022/07/23 09:10:45;;;;;;;421.13;229.90;;;;;;;;;;4998678;28;20634;-69
2022/07/23 09:13:29;;;;;;;403.77;218.20;;;;;;;;;;4997968;28;20224;-71
2022/07/23 09:15:56;;;;;;;390.27;223.60;;;;;;;;;;5001005;28;20589;-71
2022/07/23 09:18:29;;;;;;;406.77;232.85;;;;;;;;;;4998943;28;20607;-69
2022/07/23 09:21:10;;;;;;;401.15;228.07;;;;;;;;;;4999598;28;20228;-69
2022/07/23 09:23:44;;;;;;;351.50;205.43;;;;;;;;;;5006350;28;20270;-69
2022/07/23 09:26:30;;;;;;;366.00;213.32;;;;;;;;;;5001315;28;20244;-71
2022/07/23 09:28:58;;;;;;;394.80;228.07;;;;;;;;;;5003134;28;20181;-73
2022/07/23 09:31:24;;;;;;;390.58;220.77;;;;;;;;;;5003149;28;20247;-70
2022/07/23 09:33:50;;;;;;;410.70;234.30;;;;;;;;;;5003347;28;20267;-69
2022/07/23 09:36:27;;;;;;;363.73;208.50;;;;;;;;;;5001295;28;20216;-71
2022/07/23 09:38:53;;;;;;;397.08;227.52;;;;;;;;;;5002139;28;20974;-72
2022/07/23 09:41:19;;;;;;;360.27;212.95;;;;;;;;;;5003638;28;20283;-71
2022/07/23 09:43:45;;;;;;;356.17;194.07;;;;;;;;;;5007051;28;20793;-72
2022/07/23 09:46:20;;;;;;;350.25;188.57;;;;;;;;;;4998062;28;20228;-72
2022/07/23 09:48:47;;;;;;;380.27;203.50;;;;;;;;;;5003903;28;20220;-69
2022/07/23 09:51:36;;;;;;;396.35;209.68;;;;;;;;;;5004275;28;20232;-71
2022/07/23 09:53:59;;;;;;;400.05;212.00;;;;;;;;;;5003385;28;20220;-69
2022/07/23 09:56:27;;;;;;;405.77;222.23;;;;;;;;;;4998348;28;20224;-70
2022/07/23 10:01:49;;;;;;;374.03;204.03;;;;;;;;;;4993061;28;20525;-69
2022/07/23 10:04:15;;;;;;;380.10;207.02;;;;;;;;;;5005974;28;20177;-69
2022/07/23 10:06:41;;;;;;;388.48;219.02;;;;;;;;;;5001540;28;20274;-71
2022/07/23 10:09:07;;;;;;;384.15;221.98;;;;;;;;;;5003982;28;20216;-71
2022/07/23 10:11:34;;;;;;;411.45;237.30;;;;;;;;;;5001200;28;20228;-69
2022/07/23 10:14:05;;;;;;;400.60;226.73;;;;;;;;;;4999755;28;20181;-70
2022/07/23 10:16:31;;;;;;;382.98;220.40;;;;;;;;;;4997508;28;20180;-70
2022/07/23 10:18:57;;;;;;;427.88;244.15;;;;;;;;;;5000450;28;20221;-71
2022/07/23 10:21:31;;;;;;;464.05;258.45;;;;;;;;;;4999584;28;20228;-72
2022/07/23 10:24:13;;;;;;;369.85;219.80;;;;;;;;;;5008059;28;20224;-70
2022/07/23 10:26:45;;;;;;;361.27;212.18;;;;;;;;;;5026208;28;20232;-70
2022/07/23 10:29:17;;;;;;;378.50;215.95;;;;;;;;;;5011327;28;21218;-72
2022/07/23 10:31:55;;;;;;;387.73;224.50;;;;;;;;;;5005870;28;20220;-73
2022/07/23 10:34:24;;;;;;;375.73;222.57;;;;;;;;;;5009434;28;20212;-69
2022/07/23 10:36:53;;;;;;;401.17;239.32;;;;;;;;;;5009570;28;20244;-72
2022/07/23 10:39:39;;;;;;;367.58;217.02;;;;;;;;;;5013581;28;20290;-70
2022/07/23 10:42:09;;;;;;;395.45;231.35;;;;;;;;;;5006132;28;20212;-71
2022/07/23 10:44:43;;;;;;;413.27;241.88;;;;;;;;;;5005146;28;20232;-69
2022/07/23 10:49:53;;;;;;;405.55;242.43;;;;;;;;;;5009051;28;20220;-71
2022/07/23 10:52:24;;;;;;;411.13;230.20;;;;;;;;;;5007339;28;20200;-71
2022/07/23 10:54:57;;;;;;;415.67;242.60;;;;;;;;;;5005783;28;20220;-69
2022/07/23 10:57:26;;;;;;;386.80;228.88;;;;;;;;;;5004555;28;20212;-70
2022/07/23 11:02:34;;;;;;;353.90;214.70;;;;;;;;;;5003899;28;20221;-69
2022/07/23 11:05:01;;;;;;;399.95;221.85;;;;;;;;;;5008555;28;20189;-70
2022/07/23 11:07:28;;;;;;;371.92;218.57;;;;;;;;;;5006710;28;20173;-71
2022/07/23 11:09:53;;;;;;;375.95;214.43;;;;;;;;;;5006743;28;20622;-70
2022/07/23 11:12:19;;;;;;;385.73;218.50;;;;;;;;;;5004994;28;20224;-70
2022/07/23 11:15:04;;;;;;;383.05;212.02;;;;;;;;;;5004449;28;20362;-70
2022/07/23 11:17:30;;;;;;;394.23;215.50;;;;;;;;;;5005438;28;20231;-71
2022/07/23 11:20:13;;;;;;;394.48;222.75;;;;;;;;;;5005816;28;20200;-69
2022/07/23 11:22:45;;;;;;;370.80;212.10;;;;;;;;;;5004719;28;20204;-70
2022/07/23 11:25:12;;;;;;;373.35;204.73;;;;;;;;;;5005809;28;20220;-70
2022/07/23 11:27:43;;;;;;;363.60;204.80;;;;;;;;;;5004378;28;20217;-70
2022/07/23 11:30:10;;;;;;;383.48;214.70;;;;;;;;;;5003753;28;20221;-71
2022/07/23 11:32:38;;;;;;;357.63;210.95;;;;;;;;;;5006219;28;20958;-69
2022/07/23 11:35:19;;;;;;;409.98;229.27;;;;;;;;;;5001064;28;20651;-70
2022/07/23 11:37:45;;;;;;;377.50;212.10;;;;;;;;;;5020696;28;20184;-70
2022/07/23 11:40:15;;;;;;;361.20;201.63;;;;;;;;;;5007133;28;20247;-69
2022/07/23 11:42:55;;;;;;;400.25;218.98;;;;;;;;;;5000563;28;20228;-69
2022/07/23 11:45:21;;;;;;;532.05;287.02;;;;;;;;;;4998949;28;20213;-68
2022/07/23 11:47:47;;;;;;;395.38;219.25;;;;;;;;;;4999833;28;20228;-71
2022/07/23 11:50:13;;;;;;;385.90;221.52;;;;;;;;;;5005970;28;20225;-69
2022/07/23 11:52:39;;;;;;;352.80;210.88;;;;;;;;;;5010699;28;20212;-74
2022/07/23 11:55:07;;;;;;;364.15;217.35;;;;;;;;;;5007803;28;20225;-69
2022/07/23 11:57:34;;;;;;;351.33;201.45;;;;;;;;;;5004928;28;20302;-70
2022/07/23 12:00:06;;;;;;;354.60;215.93;;;;;;;;;;5009458;28;20594;-68
2022/07/23 12:02:32;;;;;;;414.35;239.52;;;;;;;;;;5001451;28;20221;-68
2022/07/23 12:04:58;;;;;;;389.95;232.13;;;;;;;;;;5005814;28;20197;-69
2022/07/23 12:07:27;;;;;;;368.40;218.15;;;;;;;;;;5005514;28;20204;-68
2022/07/23 12:09:54;;;;;;;429.10;248.82;;;;;;;;;;5009697;28;20240;-67
2022/07/23 12:12:20;;;;;;;355.92;206.07;;;;;;;;;;5012919;28;20231;-67
2022/07/23 12:14:50;;;;;;;358.55;204.35;;;;;;;;;;5002533;28;20233;-67
2022/07/23 12:17:16;;;;;;;364.35;206.48;;;;;;;;;;5006302;28;20678;-68
2022/07/23 12:19:42;;;;;;;354.42;207.45;;;;;;;;;;5027869;28;20180;-67
2022/07/23 12:22:08;;;;;;;365.13;207.40;;;;;;;;;;5009677;28;20694;-68
2022/07/23 12:24:52;;;;;;;422.60;234.95;;;;;;;;;;5005206;28;20220;-68
2022/07/23 12:27:20;;;;;;;434.60;245.77;;;;;;;;;;4995922;28;20551;-70
2022/07/23 12:29:46;;;;;;;353.55;218.23;;;;;;;;;;5005760;28;20229;-64
2022/07/23 12:32:28;;;;;;;400.92;239.80;;;;;;;;;;5003911;28;20261;-68
2022/07/23 12:35:04;;;;;;;363.65;219.30;;;;;;;;;;5020446;28;20399;-66
2022/07/23 12:37:32;;;;;;;373.35;230.25;;;;;;;;;;5004709;28;20215;-60
2022/07/23 12:39:58;;;;;;;368.75;234.35;;;;;;;;;;5001552;28;20224;-63
2022/07/23 12:42:24;;;;;;;422.30;262.27;;;;;;;;;;5002715;28;20236;-60
2022/07/23 12:45:03;;;;;;;468.30;289.83;;;;;;;;;;4988139;28;20228;-61
2022/07/23 12:47:29;;;;;;;377.30;241.55;;;;;;;;;;5000841;28;20232;-61
2022/07/23 12:49:55;;;;;;;431.38;265.15;;;;;;;;;;4993727;28;20251;-61
2022/07/23 12:52:21;;;;;;;368.67;234.88;;;;;;;;;;4985783;28;20196;-60
2022/07/23 12:54:47;;;;;;;398.20;233.80;;;;;;;;;;5003812;28;20696;-60
2022/07/23 12:57:13;;;;;;;392.88;238.02;;;;;;;;;;5000600;28;20216;-60
2022/07/23 12:59:39;;;;;;;416.77;251.70;;;;;;;;;;5005188;28;21031;-60
2022/07/23 13:02:08;;;;;;;369.23;229.85;;;;;;;;;;4974355;28;20933;-61
2022/07/23 13:04:34;;;;;;;385.42;247.43;;;;;;;;;;5007516;28;20243;-60
2022/07/23 13:07:01;;;;;;;423.70;267.95;;;;;;;;;;5002115;28;20752;-60
2022/07/23 13:09:31;;;;;;;444.85;266.45;;;;;;;;;;5003749;28;20217;-61
2022/07/23 13:11:57;;;;;;;409.98;254.73;;;;;;;;;;5000294;28;20232;-60
2022/07/23 13:14:24;;;;;;;368.20;240.02;;;;;;;;;;5011678;28;20216;-60
2022/07/23 13:16:51;;;;;;;389.17;253.43;;;;;;;;;;5007831;28;20199;-59
2022/07/23 13:19:17;;;;;;;374.95;245.40;;;;;;;;;;5009027;28;20182;-60
2022/07/23 13:21:43;;;;;;;356.27;238.35;;;;;;;;;;5009283;28;20224;-60
2022/07/23 13:24:10;;;;;;;372.38;238.95;;;;;;;;;;5009293;28;20251;-59
2022/07/23 13:26:36;;;;;;;363.25;237.20;;;;;;;;;;5008096;28;20221;-60
2022/07/23 13:29:02;;;;;;;420.25;263.25;;;;;;;;;;4999441;28;20196;-71
2022/07/23 13:31:28;;;;;;;394.88;250.93;;;;;;;;;;5001971;28;20214;-68
2022/07/23 13:33:54;;;;;;;426.63;265.83;;;;;;;;;;4996629;28;20729;-69
2022/07/23 13:36:20;;;;;;;443.67;276.98;;;;;;;;;;4986729;28;20238;-66
2022/07/23 13:38:46;;;;;;;379.15;242.35;;;;;;;;;;5005145;28;20578;-67
2022/07/23 13:41:12;;;;;;;360.17;231.35;;;;;;;;;;5008909;28;20228;-66
2022/07/23 13:43:38;;;;;;;359.98;235.63;;;;;;;;;;5009492;28;20185;-66
2022/07/23 13:46:04;;;;;;;368.95;240.95;;;;;;;;;;5007017;28;20224;-67
2022/07/23 13:48:29;;;;;;;425.20;269.42;;;;;;;;;;5005280;28;20224;-67
2022/07/23 13:50:56;;;;;;;424.00;269.30;;;;;;;;;;4999341;28;20292;-67
2022/07/23 13:53:23;;;;;;;417.65;263.58;;;;;;;;;;5001344;28;20216;-67
2022/07/23 13:55:51;;;;;;;457.02;284.83;;;;;;;;;;4996099;28;20655;-67
2022/07/23 13:58:17;;;;;;;398.30;256.67;;;;;;;;;;5003847;28;20196;-67
2022/07/23 14:00:44;;;;;;;400.73;258.70;;;;;;;;;;5001405;28;20283;-69
2022/07/23 14:03:10;;;;;;;397.98;261.63;;;;;;;;;;4994909;28;20232;-67